Pagrindinis puslapis
METAR-TAF:

METAR-TAF

Oro uostai :

Salernas, Italija

platuma: 40-37N, ilguma: 014-55E, Aukštis: 40 m

Dabartinis oras

Ataskaita buvo paskelbta 8 valandos ir 54 minutes, ne 16:50 UTC
Vėjas 3 kt iš Pietų/Pietryčių
Temperatūra 20°C
Drėgmė 60%
Slėgis 1017 hPa
Matomumas 10 km arba daugiau
Mažai debesys ne aukštis 3000 ft

METAR: LIRI 291650Z 15003KT 9999 FEW030 20/12 Q1017

Laikas: 03:44 (01:44 UTC)


TAF: trūkstamas

Orai ataskaitas ir orų prognozės (METAR, TAF).

turimą stotys yra geltonos ir raudonos taškus žemėlapyje.

Perkelti pele per norėdami pamatyti stoties vardą.

Tada spustelėkite, norėdami matyti oro stebėjimo ir prognozės.

Norėdami pakeisti žemėlapį: spustelėkite ant žalios mygtukų su juodo kryžiaus žemyn,; žalią mygtuką su brūkšneliu, jei norite nutolinti; arba žalių rodyklių gretimoms žemėlapius.


METAR-TAF: